^^
Meteo Knjazevac Station Historical Data
Daily Summary for September 29, 2022 Units:  English    Metric   Both
Daily Weekly Monthly Yearly Custom
  High: Low: Average:
Temperature: 70.4 °F 52.2 °F 61.6 °F
Dew Point: 63.5 °F 51.8 °F 57.7 °F
Humidity: 99% 70% 87%
Wind Speed: 14.6mph 0.8mph 4.7mph
Wind Gust: 18mph - -
Wind- - SW
Pressure: 29.91 in 29.79 in -
Precipitation: 0.01 in    
Historical Graphs
 
 
Tabular Data for September 29, 2022
Time Temperature Dew Point Pressure Wind Wind Speed Wind Gust Humidity Rainfall Rate (Hourly) solar Conditions
00:04 58.8 °F 54.7 °F 29.81 in South 5 mph 6 mph 86.2% 0.00 in 0 W/m2
00:09 58.9 °F 55 °F 29.81 in South 3 mph 6 mph 86.6% 0.00 in 0 W/m2
00:14 58.6 °F 55.1 °F 29.81 in WSW 2.3 mph 3 mph 88% 0.00 in 0 W/m2
00:19 58.4 °F 54.9 °F 29.81 in NNW 2.1 mph 2 mph 88.4% 0.00 in 0 W/m2
00:24 57.9 °F 54.7 °F 29.81 in North 2.2 mph 2 mph 89% 0.00 in 0 W/m2
00:29 57.7 °F 54.5 °F 29.81 in NNE 3 mph 3 mph 89% 0.00 in 0 W/m2
00:34 57.4 °F 54.4 °F 29.81 in NE 3.1 mph 4 mph 89.7% 0.00 in 0 W/m2
00:39 57 °F 54.1 °F 29.81 in ENE 1.7 mph 4 mph 90% 0.00 in 0 W/m2
00:44 56.8 °F 54 °F 29.81 in North 2.2 mph 2 mph 90.2% 0.00 in 0 W/m2
00:49 56.7 °F 54.1 °F 29.81 in North 1.1 mph 2 mph 90.9% 0.00 in 0 W/m2
00:54 56.4 °F 53.9 °F 29.81 in North 1.8 mph 3 mph 91.4% 0.00 in 0 W/m2
00:59 56.1 °F 54.1 °F 29.80 in North 1.6 mph 2 mph 93% 0.00 in 0 W/m2
01:04 55.9 °F 53.9 °F 29.81 in North 2 mph 2 mph 93% 0.00 in 0 W/m2
01:09 55.7 °F 53.8 °F 29.81 in NW 3.2 mph 3 mph 93.3% 0.00 in 0 W/m2
01:14 55.4 °F 53.7 °F 29.81 in West 2.8 mph 4 mph 94% 0.00 in 0 W/m2
01:19 55.2 °F 53.5 °F 29.80 in West 2.5 mph 4 mph 94% 0.00 in 0 W/m2
01:24 55.1 °F 53.6 °F 29.81 in NW 1.8 mph 3 mph 94.6% 0.00 in 0 W/m2
01:29 55 °F 53.3 °F 29.81 in NW 2 mph 2 mph 94.1% 0.00 in 0 W/m2
01:34 55 °F 53.5 °F 29.81 in NNW 1.7 mph 2 mph 94.7% 0.00 in 0 W/m2
01:39 54.9 °F 53.4 °F 29.81 in NNW 1.9 mph 2 mph 94.8% 0.00 in 0 W/m2
01:44 54.4 °F 52.7 °F 29.80 in West 2.8 mph 3 mph 94% 0.00 in 0 W/m2
01:49 53.9 °F 52.3 °F 29.81 in WSW 3.5 mph 4 mph 94% 0.00 in 0 W/m2
01:54 53.7 °F 52.3 °F 29.81 in West 4.4 mph 5 mph 94.9% 0.00 in 0 W/m2
01:59 53.8 °F 52.4 °F 29.81 in WNW 4.5 mph 5 mph 95.3% 0.00 in 0 W/m2
02:04 54 °F 52.6 °F 29.81 in NW 2.3 mph 5 mph 95% 0.00 in 0 W/m2
02:09 54.2 °F 52.8 °F 29.81 in NNW 1.7 mph 3 mph 95% 0.00 in 0 W/m2
02:14 54.5 °F 53.1 °F 29.81 in NE 1.7 mph 2 mph 95% 0.00 in 0 W/m2
02:19 54.5 °F 53.1 °F 29.80 in ESE 3.1 mph 3.4 mph 95% 0.00 in 0 W/m2
02:24 54.2 °F 52.8 °F 29.80 in ESE 1.5 mph 5 mph 95% 0.00 in 0 W/m2
02:29 54.1 °F 52.7 °F 29.80 in NNE 2.3 mph 2 mph 95% 0.00 in 0 W/m2
02:34 53.9 °F 52.5 °F 29.80 in NNW 2.4 mph 3 mph 95% 0.00 in 0 W/m2
02:39 53.8 °F 52.4 °F 29.80 in North 1.1 mph 3 mph 95% 0.00 in 0 W/m2
02:44 53.8 °F 52.6 °F 29.80 in NNW 1.6 mph 2 mph 95.7% 0.00 in 0 W/m2
02:49 53.8 °F 52.7 °F 29.80 in WNW 2.4 mph 2 mph 96% 0.00 in 0 W/m2
02:54 53.7 °F 52.6 °F 29.80 in WNW 1.2 mph 3 mph 96% 0.00 in 0 W/m2
02:59 53.5 °F 52.4 °F 29.80 in NW 2.2 mph 2.2 mph 96% 0.00 in 0 W/m2
03:04 53.3 °F 52.2 °F 29.80 in WNW 2.3 mph 3 mph 96% 0.00 in 0 W/m2
03:09 53.1 °F 52 °F 29.80 in West 2.2 mph 2 mph 96% 0.00 in 0 W/m2
03:14 52.8 °F 51.8 °F 29.80 in WSW 2.3 mph 3 mph 96.2% 0.00 in 0 W/m2
03:19 52.7 °F 52.1 °F 29.80 in West 3.1 mph 3 mph 97.8% 0.00 in 0 W/m2
03:24 52.7 °F 52.2 °F 29.80 in WNW 4.3 mph 4 mph 98.1% 0.00 in 0 W/m2
03:29 52.7 °F 52.4 °F 29.80 in NW 2.8 mph 5 mph 98.9% 0.00 in 0 W/m2
03:34 53 °F 52.5 °F 29.80 in NNW 1.8 mph 2 mph 98.3% 0.00 in 0 W/m2
03:39 53.2 °F 52.7 °F 29.80 in NE 1.8 mph 2 mph 98% 0.00 in 0 W/m2
03:44 53.1 °F 52.5 °F 29.80 in SW 1.1 mph 2 mph 98% 0.00 in 0 W/m2
03:49 52.8 °F 52.3 °F 29.80 in WSW 2.2 mph 2 mph 98% 0.00 in 0 W/m2
03:54 52.6 °F 52.1 °F 29.80 in West 2.6 mph 2.2 mph 98% 0.00 in 0 W/m2
03:59 52.4 °F 51.9 °F 29.81 in West 3.9 mph 3.6 mph 98% 0.00 in 0 W/m2
04:04 52.2 °F 51.8 °F 29.80 in West 4.4 mph 5 mph 98.8% 0.00 in 0 W/m2
04:09 52.2 °F 51.9 °F 29.80 in WNW 3.7 mph 5 mph 99% 0.00 in 0 W/m2
04:14 52.2 °F 52 °F 29.80 in WNW 2.6 mph 4 mph 99% 0.00 in 0 W/m2
04:19 52.4 °F 52.1 °F 29.80 in West 1.8 mph 3 mph 99% 0.00 in 0 W/m2
04:24 52.5 °F 52.2 °F 29.80 in WSW 2.8 mph 3 mph 99% 0.00 in 0 W/m2
04:29 52.3 °F 52.1 °F 29.81 in SW 2.7 mph 3 mph 99% 0.00 in 0 W/m2
04:34 52.3 °F 52.1 °F 29.81 in WSW 3.5 mph 3 mph 99% 0.00 in 0 W/m2
04:39 52.3 °F 52.1 °F 29.80 in WNW 2.9 mph 4 mph 99% 0.00 in 0 W/m2
04:44 52.3 °F 52.1 °F 29.80 in NW 1.5 mph 3 mph 99% 0.00 in 0 W/m2
04:49 52.5 °F 52.2 °F 29.80 in WNW 2.2 mph 2 mph 99% 0.00 in 0 W/m2
04:54 52.7 °F 52.4 °F 29.80 in West 3 mph 2.7 mph 99% 0.00 in 0 W/m2
04:59 52.9 °F 52.6 °F 29.81 in WNW 3.5 mph 3 mph 99% 0.00 in 0 W/m2
05:04 53.1 °F 52.8 °F 29.81 in NW 3.9 mph 4 mph 99% 0.00 in 0 W/m2
05:09 53.3 °F 53.1 °F 29.81 in NW 3.4 mph 5 mph 99% 0.00 in 0 W/m2
05:14 54 °F 53.7 °F 29.81 in NW 3.2 mph 4 mph 99% 0.00 in 0 W/m2
05:19 54.2 °F 54 °F 29.80 in SSW 2.3 mph 4 mph 99% 0.00 in 0 W/m2
05:24 54 °F 53.8 °F 29.80 in West 2.3 mph 2 mph 99% 0.00 in 0 W/m2
05:29 54 °F 53.7 °F 29.80 in West 3.3 mph 3 mph 99% 0.00 in 0 W/m2
05:34 54 °F 53.8 °F 29.80 in WSW 6.3 mph 6 mph 99% 0.00 in 0 W/m2
05:39 54.3 °F 53.9 °F 29.80 in WSW 6.6 mph 8 mph 98.5% 0.00 in 0 W/m2
05:44 55 °F 54.2 °F 29.80 in WSW 7 mph 8 mph 97.2% 0.00 in 0 W/m2
05:49 55.7 °F 54.5 °F 29.80 in WSW 8.6 mph 8 mph 95.6% 0.00 in 0 W/m2
05:54 56.1 °F 54.7 °F 29.80 in WSW 7.1 mph 12 mph 94.9% 0.00 in 0 W/m2
05:59 56.4 °F 54.7 °F 29.80 in WSW 8.1 mph 10 mph 93.9% 0.00 in 0 W/m2
06:04 57.1 °F 55 °F 29.79 in SW 9.7 mph 10 mph 92.8% 0.00 in 0 W/m2
06:09 57.7 °F 55 °F 29.79 in SW 9.1 mph 11 mph 90.6% 0.00 in 0 W/m2
06:14 57.9 °F 55.1 °F 29.79 in SSW 6.7 mph 10 mph 90.3% 0.00 in 0 W/m2
06:19 57.6 °F 55 °F 29.79 in SW 3.8 mph 7 mph 91% 0.00 in 0 W/m2
06:24 57.6 °F 55 °F 29.79 in West 3.7 mph 4 mph 91% 0.00 in 1 W/m2
06:29 57.6 °F 55 °F 29.79 in WNW 2.8 mph 5 mph 91% 0.00 in 1 W/m2
06:34 57.4 °F 55.3 °F 29.79 in WNW 2.5 mph 3 mph 92.6% 0.00 in 2 W/m2
06:39 57.2 °F 55.4 °F 29.79 in West 3.4 mph 3.1 mph 93.7% 0.00 in 5 W/m2
06:44 56.9 °F 55.2 °F 29.79 in West 2.8 mph 5 mph 94.2% 0.00 in 9 W/m2
06:49 56.7 °F 55.3 °F 29.79 in West 2.9 mph 3 mph 95% 0.00 in 10 W/m2
06:54 56.5 °F 55.1 °F 29.79 in West 4.2 mph 4 mph 95% 0.00 in 14 W/m2
06:59 56.5 °F 55.2 °F 29.79 in West 3 mph 5 mph 95.2% 0.00 in 21 W/m2
07:04 56.5 °F 55.4 °F 29.79 in WSW 3.4 mph 3 mph 96% 0.00 in 29 W/m2
07:09 56.4 °F 55.5 °F 29.79 in West 4.1 mph 4 mph 96.8% 0.00 in 41 W/m2
07:14 56.4 °F 55.8 °F 29.80 in West 5.2 mph 5 mph 97.8% 0.00 in 45 W/m2
07:19 56.6 °F 55.9 °F 29.80 in West 3.8 mph 6 mph 97.5% 0.00 in 45 W/m2
07:24 56.8 °F 56.2 °F 29.80 in West 3.2 mph 4 mph 97.6% 0.00 in 39 W/m2
07:29 56.9 °F 56.4 °F 29.80 in WSW 2.6 mph 4 mph 98% 0.00 in 37 W/m2
07:34 57 °F 56.3 °F 29.80 in WSW 2.3 mph 3 mph 97.5% 0.00 in 45 W/m2
07:39 57.1 °F 56 °F 29.81 in WSW 3.4 mph 3 mph 96% 0.00 in 68 W/m2
07:44 57.5 °F 56.1 °F 29.81 in WSW 4 mph 4 mph 95.2% 0.00 in 81 W/m2
07:49 57.9 °F 56.4 °F 29.81 in WSW 4.7 mph 5 mph 94.7% 0.00 in 80 W/m2
07:54 58.4 °F 56.6 °F 29.81 in WSW 5.3 mph 6 mph 94% 0.00 in 68 W/m2
07:59 58.7 °F 57 °F 29.81 in WSW 4.6 mph 6 mph 93.8% 0.00 in 49 W/m2
08:04 59.3 °F 57.2 °F 29.81 in West 4.9 mph 7 mph 93.1% 0.00 in 70 W/m2
08:09 59.5 °F 57.4 °F 29.81 in WNW 3.7 mph 7 mph 92.6% 0.00 in 63 W/m2
08:14 60 °F 57.3 °F 29.81 in NW 3.2 mph 5 mph 90.8% 0.00 in 63 W/m2
08:19 60.4 °F 57.5 °F 29.81 in NW 3.2 mph 4 mph 90.2% 0.00 in 59 W/m2
08:24 60.7 °F 57.5 °F 29.82 in NW 3.6 mph 5 mph 89.3% 0.00 in 60 W/m2
08:29 61 °F 57.7 °F 29.82 in NW 3.3 mph 5 mph 89% 0.00 in 60 W/m2
08:34 61.1 °F 57.8 °F 29.82 in WNW 3.3 mph 4 mph 89% 0.00 in 58 W/m2
08:39 61.2 °F 58 °F 29.82 in WNW 4.2 mph 4 mph 89.3% 0.00 in 58 W/m2
08:44 61.3 °F 58.1 °F 29.82 in West 3.6 mph 5 mph 89% 0.00 in 56 W/m2
08:49 61.4 °F 57.9 °F 29.83 in West 3.2 mph 5 mph 88.3% 0.00 in 56 W/m2
08:54 61.5 °F 58.3 °F 29.83 in WSW 2.1 mph 4 mph 89.1% 0.00 in 45 W/m2
08:59 61.5 °F 58.7 °F 29.83 in WSW 1.4 mph 3 mph 90.2% 0.00 in 57 W/m2
09:04 61.5 °F 58.9 °F 29.83 in WSW 2.1 mph 2 mph 91% 0.01 in 85 W/m2
09:09 61.5 °F 58.9 °F 29.83 in WSW 2.4 mph 2 mph 91% 0.01 in 107 W/m2
09:14 61.5 °F 59.5 °F 29.83 in West 2.8 mph 3 mph 92.9% 0.01 in 112 W/m2
09:19 61.5 °F 59.4 °F 29.83 in WSW 3 mph 3 mph 92.6% 0.01 in 139 W/m2
09:24 61.6 °F 59.6 °F 29.83 in WSW 3.4 mph 3 mph 93.2% 0.01 in 147 W/m2
09:29 61.7 °F 60 °F 29.84 in WSW 3.1 mph 3 mph 94% 0.01 in 141 W/m2
09:34 61.8 °F 60.2 °F 29.84 in West 2.2 mph 3 mph 94.6% 0.01 in 135 W/m2
09:39 61.9 °F 60.4 °F 29.84 in WNW 2.2 mph 2 mph 95% 0.02 in 121 W/m2
09:44 61.9 °F 60.4 °F 29.84 in WNW 2.2 mph 2 mph 95% 0.02 in 112 W/m2
09:49 62 °F 60.7 °F 29.84 in West 2.2 mph 2 mph 95.4% 0.02 in 136 W/m2
09:54 62.1 °F 61 °F 29.84 in WSW 2.3 mph 2 mph 96% 0.02 in 159 W/m2
09:59 62.3 °F 61.2 °F 29.84 in WSW 2.9 mph 2.9 mph 96% 0.02 in 159 W/m2
10:04 62.6 °F 61.1 °F 29.84 in WSW 4.6 mph 5 mph 95.1% 0.01 in 153 W/m2
10:09 62.8 °F 60.9 °F 29.85 in SW 7.3 mph 7 mph 93.4% 0.01 in 149 W/m2
10:14 63 °F 60.1 °F 29.85 in SW 6 mph 9 mph 90.3% 0.01 in 154 W/m2
10:19 63.2 °F 60.4 °F 29.85 in SW 3.4 mph 8 mph 90.6% 0.01 in 154 W/m2
10:24 63.4 °F 60.7 °F 29.85 in SW 5.1 mph 4 mph 91% 0.01 in 135 W/m2
10:29 63.5 °F 60.8 °F 29.85 in SW 6.1 mph 6 mph 91% 0.01 in 121 W/m2
10:34 63.3 °F 60.6 °F 29.85 in SW 6.3 mph 7 mph 91% 0.01 in 162 W/m2
10:39 63.3 °F 60.8 °F 29.85 in SW 4.5 mph 7 mph 91.5% 0.01 in 166 W/m2
10:44 63.3 °F 61.4 °F 29.85 in SW 3.9 mph 5 mph 93.2% 0.01 in 164 W/m2
10:49 63.3 °F 61.3 °F 29.85 in SW 3.9 mph 5 mph 93% 0.01 in 171 W/m2
10:54 63.3 °F 61.2 °F 29.85 in SW 5 mph 5 mph 92.8% 0.01 in 174 W/m2
10:59 63.5 °F 61.2 °F 29.85 in WSW 4.8 mph 6 mph 92.3% 0.01 in 158 W/m2
11:04 63.5 °F 61.1 °F 29.85 in WSW 4.2 mph 6 mph 92% 0.01 in 152 W/m2
11:09 63.5 °F 61.4 °F 29.85 in West 4.7 mph 5 mph 93% 0.01 in 151 W/m2
11:14 63.5 °F 61.4 °F 29.85 in WSW 3.6 mph 6 mph 93% 0.01 in 146 W/m2
11:19 63.6 °F 61.5 °F 29.85 in WSW 4 mph 5 mph 93% 0.01 in 146 W/m2
11:24 63.7 °F 61.6 °F 29.85 in WSW 4 mph 5 mph 93% 0.01 in 154 W/m2
11:29 63.9 °F 61.6 °F 29.85 in WSW 4.7 mph 6 mph 92.1% 0.00 in 155 W/m2
11:34 64 °F 61.4 °F 29.85 in WSW 4.7 mph 6 mph 91% 0.00 in 168 W/m2
11:39 64.2 °F 61.4 °F 29.85 in SW 5.9 mph 6 mph 90.6% 0.00 in 187 W/m2
11:44 64.4 °F 61.6 °F 29.85 in SW 5.8 mph 7 mph 90.4% 0.00 in 225 W/m2
11:49 64.7 °F 61.7 °F 29.85 in SW 7.1 mph 8 mph 90% 0.00 in 230 W/m2
11:54 65 °F 61.7 °F 29.84 in SW 7.2 mph 7 mph 89.2% 0.00 in 221 W/m2
11:59 65.2 °F 61.9 °F 29.84 in SW 7.4 mph 8 mph 89% 0.00 in 189 W/m2
12:04 65.4 °F 61.9 °F 29.84 in SW 6.9 mph 8 mph 88.3% 0.00 in 168 W/m2
12:09 65.6 °F 61.8 °F 29.84 in SW 7.9 mph 9 mph 87.6% 0.00 in 186 W/m2
12:14 65.7 °F 62.1 °F 29.84 in SW 6.5 mph 9 mph 88% 0.00 in 195 W/m2
12:19 65.9 °F 62.2 °F 29.84 in SW 7.4 mph 8 mph 87.8% 0.00 in 195 W/m2
12:24 66.1 °F 61.8 °F 29.85 in WSW 7 mph 8 mph 86.1% 0.00 in 225 W/m2
12:29 66.4 °F 62.2 °F 29.84 in WSW 6.4 mph 8 mph 86.3% 0.00 in 235 W/m2
12:34 66.6 °F 62.3 °F 29.84 in WSW 4.9 mph 7 mph 86.1% 0.00 in 219 W/m2
12:39 66.7 °F 62.5 °F 29.84 in West 3.8 mph 5 mph 86.2% 0.00 in 193 W/m2
12:44 66.9 °F 62.7 °F 29.84 in NW 3.8 mph 5 mph 86.3% 0.00 in 188 W/m2
12:49 67.1 °F 62.8 °F 29.84 in North 4.3 mph 5 mph 86% 0.00 in 225 W/m2
12:54 67.3 °F 62.8 °F 29.84 in NNE 4.1 mph 5 mph 85.5% 0.00 in 267 W/m2
12:59 67.6 °F 63.1 °F 29.84 in NE 5.1 mph 5 mph 85.5% 0.00 in 299 W/m2
13:04 67.8 °F 63 °F 29.84 in ENE 4.5 mph 6 mph 84.6% 0.00 in 299 W/m2
13:09 68 °F 63.3 °F 29.84 in NE 4.3 mph 5 mph 84.9% 0.00 in 325 W/m2
13:14 68.2 °F 63.4 °F 29.84 in NE 2.8 mph 5 mph 84.6% 0.00 in 338 W/m2
13:19 68.5 °F 63.5 °F 29.84 in East 3.6 mph 4 mph 84.1% 0.00 in 307 W/m2
13:24 69 °F 63 °F 29.84 in South 6.8 mph 5.4 mph 81.4% 0.00 in 285 W/m2
13:29 69.4 °F 62.4 °F 29.84 in SSW 6.7 mph 8 mph 78.3% 0.00 in 264 W/m2
13:34 69.7 °F 62.7 °F 29.84 in SSW 5 mph 7 mph 78.4% 0.00 in 225 W/m2
13:39 69.6 °F 63.2 °F 29.84 in SSE 4.3 mph 6 mph 80.2% 0.00 in 182 W/m2
13:44 69.1 °F 63.4 °F 29.84 in East 4.1 mph 5 mph 82.3% 0.00 in 154 W/m2
13:49 68.7 °F 63.2 °F 29.84 in ENE 6.8 mph 5 mph 82.6% 0.00 in 151 W/m2
13:54 68.8 °F 62.5 °F 29.84 in ESE 4.1 mph 8 mph 80.3% 0.00 in 181 W/m2
13:59 69.1 °F 62.2 °F 29.84 in SSE 6 mph 5.4 mph 78.5% 0.00 in 174 W/m2
14:04 69.4 °F 62.5 °F 29.84 in SSW 4.5 mph 8 mph 78.8% 0.00 in 165 W/m2
14:09 69.6 °F 63.1 °F 29.84 in SW 4.9 mph 5 mph 79.7% 0.00 in 171 W/m2
14:14 69.6 °F 63.2 °F 29.84 in SW 5.8 mph 6 mph 80% 0.00 in 171 W/m2
14:19 69.6 °F 62.9 °F 29.84 in SW 8 mph 8 mph 79.3% 0.00 in 167 W/m2
14:24 69.5 °F 62.5 °F 29.84 in SW 8.8 mph 9 mph 78.6% 0.00 in 156 W/m2
14:29 69.4 °F 62.5 °F 29.84 in SW 8.4 mph 10 mph 78.5% 0.00 in 138 W/m2
14:34 69.4 °F 62.3 °F 29.84 in SW 8.8 mph 9 mph 78% 0.00 in 139 W/m2
14:39 69.4 °F 62.1 °F 29.84 in SW 9.4 mph 9 mph 77.4% 0.00 in 165 W/m2
14:44 69.4 °F 62.1 °F 29.84 in SW 9.1 mph 10 mph 77.3% 0.00 in 175 W/m2
14:49 69.6 °F 62.2 °F 29.84 in SW 8.3 mph 10 mph 77.3% 0.00 in 186 W/m2
14:54 69.6 °F 62.1 °F 29.84 in SW 8.3 mph 9 mph 77.1% 0.00 in 186 W/m2
14:59 69.7 °F 62 °F 29.84 in SW 9.1 mph 10 mph 76.5% 0.00 in 190 W/m2
15:04 69.8 °F 61.5 °F 29.84 in SW 9.6 mph 11 mph 75% 0.00 in 190 W/m2
15:09 70 °F 61.7 °F 29.84 in SW 9.2 mph 11 mph 75% 0.00 in 181 W/m2
15:14 70 °F 61.4 °F 29.84 in SW 10.1 mph 10 mph 74.4% 0.00 in 195 W/m2
15:19 70.1 °F 61.1 °F 29.84 in SW 13.4 mph 13 mph 73.2% 0.00 in 239 W/m2
15:24 70.3 °F 61 °F 29.84 in SW 13.2 mph 16 mph 72.4% 0.00 in 272 W/m2
15:29 70.3 °F 60.9 °F 29.84 in SW 14 mph 16 mph 72% 0.00 in 267 W/m2
15:34 70.4 °F 61.2 °F 29.84 in SW 11.2 mph 16 mph 72.5% 0.00 in 225 W/m2
15:39 70.4 °F 61.1 °F 29.84 in SW 10.9 mph 13 mph 72.3% 0.00 in 207 W/m2
15:44 70.4 °F 61.2 °F 29.84 in SW 9.3 mph 12 mph 72.4% 0.00 in 201 W/m2
15:49 70.4 °F 61.2 °F 29.84 in SW 8.9 mph 9 mph 72.5% 0.00 in 179 W/m2
15:54 70.4 °F 60.9 °F 29.84 in SSW 9.5 mph 10 mph 71.8% 0.00 in 159 W/m2
15:59 70.3 °F 60.9 °F 29.84 in SSW 8.9 mph 10 mph 72% 0.00 in 156 W/m2
16:04 70.2 °F 60.7 °F 29.85 in SW 8.8 mph 10 mph 72% 0.00 in 207 W/m2
16:09 70.2 °F 60.5 °F 29.85 in SW 11.4 mph 12 mph 71.2% 0.00 in 270 W/m2
16:14 70.3 °F 60.8 °F 29.85 in SW 9.7 mph 13 mph 71.8% 0.00 in 262 W/m2
16:19 70.3 °F 60.1 °F 29.85 in SW 14.6 mph 12.7 mph 70.1% 0.00 in 262 W/m2
16:24 70.1 °F 59.8 °F 29.85 in SW 13.2 mph 18 mph 70% 0.00 in 149 W/m2
16:29 69.7 °F 59.6 °F 29.85 in SW 12.9 mph 15 mph 70.2% 0.00 in 135 W/m2
16:34 69.5 °F 60.1 °F 29.85 in SW 11.1 mph 14 mph 71.9% 0.00 in 121 W/m2
16:39 69.4 °F 59.9 °F 29.85 in SW 9.9 mph 12 mph 72% 0.00 in 140 W/m2
16:44 69.3 °F 59.9 °F 29.85 in SW 12.9 mph 13 mph 72.2% 0.00 in 140 W/m2
16:49 69.1 °F 60 °F 29.85 in SW 12.3 mph 15 mph 72.7% 0.00 in 141 W/m2
16:54 69.1 °F 60.1 °F 29.85 in SW 10.8 mph 14 mph 73.2% 0.00 in 119 W/m2
16:59 68.8 °F 59.8 °F 29.85 in SW 11.4 mph 13 mph 73% 0.00 in 111 W/m2
17:04 68.7 °F 59.8 °F 29.85 in SW 10.5 mph 13 mph 73.4% 0.00 in 95 W/m2
17:09 68.5 °F 59.9 °F 29.85 in SW 7.9 mph 12 mph 74% 0.00 in 99 W/m2
17:14 68.5 °F 59.9 °F 29.85 in SW 7.2 mph 9 mph 74% 0.00 in 99 W/m2
17:19 68.4 °F 59.9 °F 29.85 in SSW 5.9 mph 8 mph 74.3% 0.00 in 119 W/m2
17:24 68.4 °F 59.9 °F 29.85 in SW 8 mph 9 mph 74.4% 0.00 in 95 W/m2
17:29 68.4 °F 60 °F 29.85 in SW 6.3 mph 8 mph 74.6% 0.00 in 111 W/m2
17:34 68.4 °F 59.9 °F 29.85 in SW 6.1 mph 7 mph 74.5% 0.00 in 106 W/m2
17:39 68.4 °F 59.9 °F 29.85 in SSW 4.2 mph 7 mph 74.4% 0.00 in 95 W/m2
17:44 68.4 °F 59.8 °F 29.85 in South 4.1 mph 5 mph 74.2% 0.00 in 75 W/m2
17:49 68.3 °F 59.9 °F 29.85 in South 5 mph 5 mph 74.5% 0.00 in 58 W/m2
17:54 68.2 °F 60 °F 29.85 in South 6.4 mph 6 mph 74.9% 0.00 in 39 W/m2
17:59 67.9 °F 59.7 °F 29.85 in SW 5 mph 7 mph 75% 0.00 in 28 W/m2
18:04 67.7 °F 59.7 °F 29.85 in SW 3.4 mph 6 mph 75.5% 0.00 in 23 W/m2
18:09 67.4 °F 60 °F 29.85 in SW 4.9 mph 4.2 mph 77% 0.00 in 17 W/m2
18:14 67.1 °F 59.6 °F 29.86 in SW 6 mph 6 mph 77% 0.00 in 11 W/m2
18:19 66.8 °F 59.5 °F 29.86 in SW 4.5 mph 7 mph 77.1% 0.00 in 7 W/m2
18:24 66.7 °F 59.6 °F 29.86 in SW 3.9 mph 5 mph 77.9% 0.00 in 3 W/m2
18:29 66.5 °F 59.4 °F 29.86 in SW 3.2 mph 5 mph 78% 0.00 in 1 W/m2
18:34 66.3 °F 59.5 °F 29.86 in SSW 2.4 mph 4 mph 78.6% 0.00 in 0 W/m2
18:39 66 °F 59.4 °F 29.86 in South 2.5 mph 3 mph 79.3% 0.00 in 0 W/m2
18:44 65.7 °F 59.4 °F 29.86 in SW 2.1 mph 3 mph 80% 0.00 in 0 W/m2
18:49 65.4 °F 59.3 °F 29.86 in West 2.2 mph 2 mph 80.6% 0.00 in 0 W/m2
18:54 64.9 °F 59 °F 29.86 in West 1.9 mph 2 mph 81% 0.00 in 0 W/m2
18:59 64.7 °F 59 °F 29.86 in West 3.9 mph 5 mph 82% 0.00 in 0 W/m2
19:04 64.4 °F 58.5 °F 29.86 in WSW 3.9 mph 5 mph 81.3% 0.00 in 0 W/m2
19:09 64.5 °F 58.1 °F 29.87 in SW 7.4 mph 6.3 mph 79.7% 0.00 in 0 W/m2
19:14 64.9 °F 58.2 °F 29.87 in SSW 4.5 mph 9 mph 79% 0.00 in 0 W/m2
19:19 65 °F 58.6 °F 29.87 in South 3.9 mph 5 mph 80% 0.00 in 0 W/m2
19:24 64.6 °F 58.6 °F 29.87 in WSW 4.8 mph 5 mph 81% 0.00 in 0 W/m2
19:29 64.2 °F 58.3 °F 29.87 in WSW 4.2 mph 6 mph 81.2% 0.00 in 0 W/m2
19:34 63.8 °F 58.5 °F 29.87 in WSW 4.1 mph 5 mph 82.9% 0.00 in 0 W/m2
19:39 63.4 °F 58.1 °F 29.87 in SW 3.8 mph 5 mph 83% 0.00 in 0 W/m2
19:44 63.1 °F 57.9 °F 29.87 in SSW 3.3 mph 5 mph 83% 0.00 in 0 W/m2
19:49 62.9 °F 57.6 °F 29.87 in SW 2.9 mph 3 mph 83% 0.00 in 0 W/m2
19:54 62.7 °F 57.5 °F 29.88 in SW 2.8 mph 3 mph 83.2% 0.00 in 0 W/m2
19:59 62.5 °F 57.5 °F 29.88 in WSW 3.1 mph 4 mph 83.4% 0.00 in 0 W/m2
20:04 62.4 °F 57.2 °F 29.88 in West 4.4 mph 6 mph 83.1% 0.00 in 0 W/m2
20:09 62.4 °F 57.2 °F 29.88 in West 2.4 mph 5 mph 83% 0.00 in 0 W/m2
20:14 62.4 °F 57.2 °F 29.88 in WNW 2 mph 3 mph 83% 0.00 in 0 W/m2
20:19 62.4 °F 57.2 °F 29.88 in WSW 3.5 mph 3.1 mph 83% 0.00 in 0 W/m2
20:24 62.6 °F 57.4 °F 29.88 in SSE 3.7 mph 5 mph 83% 0.00 in 0 W/m2
20:29 62.8 °F 57.1 °F 29.88 in ESE 4.4 mph 5 mph 81.7% 0.00 in 0 W/m2
20:34 63 °F 57 °F 29.89 in SE 5.8 mph 6 mph 80.9% 0.00 in 0 W/m2
20:39 63.3 °F 57 °F 29.88 in SE 4.8 mph 7 mph 80.1% 0.00 in 0 W/m2
20:44 63.5 °F 57.2 °F 29.89 in SSE 4.9 mph 6 mph 80% 0.00 in 0 W/m2
20:49 63.5 °F 57.2 °F 29.89 in SSE 4 mph 6 mph 80% 0.00 in 0 W/m2
20:54 63.3 °F 57.1 °F 29.89 in SSE 5.7 mph 7 mph 80.1% 0.00 in 0 W/m2
20:59 63.3 °F 57.3 °F 29.89 in SSE 4.2 mph 7 mph 80.9% 0.00 in 0 W/m2
21:04 63.1 °F 57.3 °F 29.89 in SSE 3.4 mph 5 mph 81.3% 0.00 in 0 W/m2
21:09 62.9 °F 57.6 °F 29.90 in SSW 2.7 mph 5 mph 83% 0.00 in 0 W/m2
21:14 62.5 °F 57.5 °F 29.90 in WNW 3.5 mph 3.1 mph 83.5% 0.00 in 0 W/m2
21:19 62.2 °F 57.2 °F 29.90 in NW 3.7 mph 5 mph 83.6% 0.00 in 0 W/m2
21:24 62 °F 57.2 °F 29.90 in NW 2.7 mph 5 mph 84.3% 0.00 in 0 W/m2
21:29 61.7 °F 57.1 °F 29.90 in NW 1.9 mph 3 mph 85% 0.00 in 0 W/m2
21:34 61.4 °F 57.1 °F 29.90 in NW 2.5 mph 3 mph 85.6% 0.00 in 0 W/m2
21:39 61.2 °F 57 °F 29.90 in WNW 1.8 mph 3 mph 86% 0.00 in 0 W/m2
21:44 60.8 °F 57.1 °F 29.90 in WNW 2.6 mph 4 mph 87.6% 0.00 in 0 W/m2
21:49 60.4 °F 57 °F 29.90 in NNW 2.1 mph 3 mph 88.3% 0.00 in 0 W/m2
21:54 60.3 °F 57 °F 29.90 in North 1.1 mph 2 mph 89% 0.00 in 0 W/m2
21:59 60.1 °F 56.9 °F 29.90 in NNW 1.1 mph 1 mph 89.4% 0.00 in 0 W/m2
22:04 59.8 °F 56.9 °F 29.90 in NNW 0.8 mph 1 mph 90% 0.00 in 0 W/m2
22:09 59.5 °F 56.6 °F 29.91 in North 3.5 mph 3.4 mph 89.9% 0.00 in 0 W/m2
22:14 59.5 °F 56.5 °F 29.91 in NE 3.7 mph 5 mph 89.7% 0.00 in 0 W/m2
22:19 60 °F 56.8 °F 29.91 in NE 3.1 mph 5 mph 89.2% 0.00 in 0 W/m2
22:24 60.3 °F 57 °F 29.91 in ESE 3.1 mph 4 mph 89% 0.00 in 0 W/m2
22:29 60.4 °F 57 °F 29.91 in SE 5.3 mph 4 mph 88.5% 0.00 in 0 W/m2
22:34 60.8 °F 57.2 °F 29.91 in SE 4.8 mph 8 mph 87.8% 0.00 in 0 W/m2
22:39 61.1 °F 56.9 °F 29.91 in ESE 4.1 mph 6 mph 86.1% 0.00 in 0 W/m2
22:44 61.1 °F 56.8 °F 29.91 in ESE 3.4 mph 6 mph 86% 0.00 in 0 W/m2
22:49 61 °F 56.8 °F 29.91 in ESE 2.4 mph 5 mph 86% 0.00 in 0 W/m2
22:54 60.9 °F 57.1 °F 29.91 in ESE 3.9 mph 3 mph 87.3% 0.00 in 0 W/m2
22:59 60.8 °F 57.2 °F 29.91 in ESE 5.9 mph 7 mph 88% 0.00 in 0 W/m2
23:04 60.9 °F 57.2 °F 29.91 in SE 6.2 mph 7 mph 87.6% 0.00 in 0 W/m2
23:09 61.1 °F 56.9 °F 29.91 in SE 8.5 mph 8 mph 86.3% 0.00 in 0 W/m2
23:14 61.1 °F 56.9 °F 29.91 in SE 6.4 mph 9 mph 86.2% 0.00 in 0 W/m2
23:19 60.9 °F 57.3 °F 29.91 in SSE 5.6 mph 8 mph 87.9% 0.00 in 0 W/m2
23:24 60.9 °F 57.3 °F 29.91 in SSE 4.3 mph 7 mph 88% 0.00 in 0 W/m2
23:29 60.8 °F 57.2 °F 29.91 in SSE 6.3 mph 5 mph 88% 0.00 in 0 W/m2
23:34 61 °F 57.1 °F 29.91 in SSE 7.6 mph 8 mph 87% 0.00 in 0 W/m2
23:39 61.3 °F 57.1 °F 29.91 in South 3.2 mph 9 mph 86% 0.00 in 0 W/m2
23:44 61.2 °F 57.1 °F 29.91 in South 2.7 mph 3 mph 86.5% 0.00 in 0 W/m2
23:49 60.8 °F 57.2 °F 29.91 in South 2.6 mph 3 mph 88% 0.00 in 0 W/m2
23:54 60.6 °F 57 °F 29.91 in WNW 1.9 mph 3 mph 88% 0.00 in 0 W/m2
23:59 60.4 °F 56.8 °F 29.91 in WNW 1.9 mph 2 mph 88.1% 0.00 in 0 W/m2
Knjazevac, Serbia
Compliments of Weather Underground - 4 mb